GLO9564 SBCF-SBPA
Flight info
| Callsign | GLO9564 |
|---|---|
| Flight time | 2h 7m |
| Altitude | 40000 |
| Route | DEUCA UZ21 VUNOX UZ38 VUKMO |
| Aircraft | B737/M-SDFGIKLORWXY/LB1 |
Departure
| Time | 2026-05-06 21:28 |
|---|---|
| Airport | Tancredo Neves International Airport (SBCF) |
Arrival
| Time | 2026-05-06 23:35 |
|---|---|
| Airport | Porto Alegre-Salgado Filho International Airport (SBPA) |
| Time | Latitude | Longitude | Altitude | Speed | Heading |
|---|---|---|---|---|---|
| 2026-05-06 21:15 | -19.62821 | -43.96856 | 2816 ft | 0 kts | 49° |
| 2026-05-06 21:19 | -19.62823 | -43.96859 | 2816 ft | 2 kts | 49° |
| 2026-05-06 21:19 | -19.62835 | -43.96871 | 2815 ft | 2 kts | 44° |
| 2026-05-06 21:19 | -19.62847 | -43.96883 | 2816 ft | 2 kts | 34° |
| 2026-05-06 21:20 | -19.62861 | -43.96891 | 2814 ft | 2 kts | 13° |
| 2026-05-06 21:20 | -19.62878 | -43.96891 | 2814 ft | 2 kts | 335° |
| 2026-05-06 21:20 | -19.62888 | -43.96884 | 2815 ft | 1 kts | 321° |
| 2026-05-06 21:20 | -19.62889 | -43.96883 | 2815 ft | 0 kts | 321° |
| 2026-05-06 21:22 | -19.62888 | -43.96884 | 2815 ft | 1 kts | 320° |
| 2026-05-06 21:23 | -19.62877 | -43.96897 | 2810 ft | 4 kts | 312° |
| 2026-05-06 21:23 | -19.62848 | -43.96926 | 2810 ft | 8 kts | 318° |
| 2026-05-06 21:23 | -19.62800 | -43.96971 | 2812 ft | 10 kts | 319° |
| 2026-05-06 21:23 | -19.62793 | -43.97034 | 2812 ft | 10 kts | 246° |
| 2026-05-06 21:24 | -19.62823 | -43.97080 | 2812 ft | 4 kts | 227° |
| 2026-05-06 21:24 | -19.62847 | -43.97109 | 2811 ft | 6 kts | 230° |
| 2026-05-06 21:24 | -19.62843 | -43.97133 | 2810 ft | 4 kts | 313° |
| 2026-05-06 21:24 | -19.62811 | -43.97162 | 2810 ft | 8 kts | 319° |
| 2026-05-06 21:25 | -19.62762 | -43.97208 | 2812 ft | 11 kts | 320° |
| 2026-05-06 21:25 | -19.62697 | -43.97268 | 2813 ft | 14 kts | 318° |
| 2026-05-06 21:25 | -19.62617 | -43.97342 | 2815 ft | 17 kts | 319° |
| 2026-05-06 21:25 | -19.62524 | -43.97429 | 2810 ft | 18 kts | 319° |
| 2026-05-06 21:26 | -19.62430 | -43.97515 | 2812 ft | 18 kts | 319° |
| 2026-05-06 21:26 | -19.62341 | -43.97598 | 2810 ft | 15 kts | 319° |
| 2026-05-06 21:26 | -19.62268 | -43.97665 | 2810 ft | 12 kts | 319° |
| 2026-05-06 21:26 | -19.62236 | -43.97718 | 2813 ft | 6 kts | 272° |
| 2026-05-06 21:27 | -19.62250 | -43.97758 | 2814 ft | 7 kts | 232° |
| 2026-05-06 21:27 | -19.62324 | -43.97784 | 2810 ft | 16 kts | 182° |
| 2026-05-06 21:27 | -19.62455 | -43.97719 | 2811 ft | 37 kts | 137° |
| 2026-05-06 21:27 | -19.62831 | -43.97371 | 2813 ft | 105 kts | 141° |
| 2026-05-06 21:28 | -19.63531 | -43.96725 | 2811 ft | 160 kts | 139° |
| 2026-05-06 21:28 | -19.64434 | -43.95883 | 3229 ft | 176 kts | 138° |
| 2026-05-06 21:28 | -19.65341 | -43.95042 | 4120 ft | 175 kts | 136° |
| 2026-05-06 21:28 | -19.66331 | -43.94126 | 4431 ft | 204 kts | 136° |
| 2026-05-06 21:29 | -19.67431 | -43.93110 | 4902 ft | 218 kts | 137° |
| 2026-05-06 21:29 | -19.68631 | -43.92077 | 5585 ft | 227 kts | 149° |
| 2026-05-06 21:29 | -19.70207 | -43.91602 | 6049 ft | 254 kts | 177° |
| 2026-05-06 21:29 | -19.71998 | -43.92096 | 6435 ft | 281 kts | 210° |
| 2026-05-06 21:30 | -19.73561 | -43.93401 | 7177 ft | 290 kts | 223° |
| 2026-05-06 21:30 | -19.74990 | -43.94937 | 8044 ft | 293 kts | 226° |
| 2026-05-06 21:30 | -19.76380 | -43.96520 | 8905 ft | 296 kts | 226° |
| 2026-05-06 21:30 | -19.77791 | -43.98137 | 9746 ft | 300 kts | 226° |
| 2026-05-06 21:31 | -19.79224 | -43.99767 | 10524 ft | 305 kts | 226° |
| 2026-05-06 21:31 | -19.80731 | -44.01468 | 10804 ft | 329 kts | 226° |
| 2026-05-06 21:31 | -19.82363 | -44.03293 | 11140 ft | 348 kts | 226° |
| 2026-05-06 21:31 | -19.84047 | -44.05166 | 11825 ft | 353 kts | 226° |
| 2026-05-06 21:32 | -19.85751 | -44.07054 | 12546 ft | 356 kts | 226° |
| 2026-05-06 21:32 | -19.89221 | -44.10887 | 14035 ft | 364 kts | 226° |
| 2026-05-06 21:32 | -19.90990 | -44.12838 | 14673 ft | 368 kts | 226° |
| 2026-05-06 21:33 | -19.92774 | -44.14805 | 15416 ft | 369 kts | 226° |
| 2026-05-06 21:33 | -19.94562 | -44.16776 | 16173 ft | 371 kts | 225° |
| 2026-05-06 21:33 | -19.96360 | -44.18758 | 16850 ft | 375 kts | 225° |
| 2026-05-06 21:33 | -19.98178 | -44.20764 | 17543 ft | 378 kts | 225° |
| 2026-05-06 21:34 | -20.00012 | -44.22787 | 18239 ft | 380 kts | 225° |
| 2026-05-06 21:34 | -20.01830 | -44.24794 | 18832 ft | 384 kts | 225° |
| 2026-05-06 21:34 | -20.03687 | -44.26844 | 19418 ft | 386 kts | 225° |
| 2026-05-06 21:34 | -20.05562 | -44.28915 | 20026 ft | 388 kts | 225° |
| 2026-05-06 21:35 | -20.07443 | -44.30995 | 20621 ft | 391 kts | 225° |
| 2026-05-06 21:35 | -20.09335 | -44.33086 | 21216 ft | 393 kts | 225° |
| 2026-05-06 21:35 | -20.11240 | -44.35194 | 21807 ft | 396 kts | 225° |
| 2026-05-06 21:35 | -20.13157 | -44.37314 | 22380 ft | 399 kts | 225° |
| 2026-05-06 21:36 | -20.15084 | -44.39447 | 22953 ft | 401 kts | 225° |
| 2026-05-06 21:36 | -20.17025 | -44.41597 | 23516 ft | 404 kts | 225° |
| 2026-05-06 21:36 | -20.18979 | -44.43761 | 24041 ft | 406 kts | 225° |
| 2026-05-06 21:36 | -20.20910 | -44.45900 | 24573 ft | 406 kts | 225° |
| 2026-05-06 21:37 | -20.22866 | -44.48069 | 25140 ft | 405 kts | 225° |
| 2026-05-06 21:37 | -20.24816 | -44.50232 | 25684 ft | 405 kts | 225° |
| 2026-05-06 21:37 | -20.26773 | -44.52403 | 26214 ft | 406 kts | 225° |
| 2026-05-06 21:37 | -20.28071 | -44.53843 | 26549 ft | 406 kts | 225° |
| 2026-05-06 21:38 | -20.30028 | -44.56016 | 27044 ft | 407 kts | 224° |
| 2026-05-06 21:38 | -20.31999 | -44.58205 | 27536 ft | 408 kts | 224° |
| 2026-05-06 21:38 | -20.34608 | -44.61104 | 28206 ft | 409 kts | 224° |
| 2026-05-06 21:38 | -20.35934 | -44.62577 | 28518 ft | 409 kts | 224° |
| 2026-05-06 21:39 | -20.37908 | -44.64773 | 29006 ft | 409 kts | 224° |
| 2026-05-06 21:39 | -20.40517 | -44.67676 | 29587 ft | 411 kts | 224° |
| 2026-05-06 21:39 | -20.41856 | -44.69165 | 29878 ft | 411 kts | 224° |
| 2026-05-06 21:39 | -20.43838 | -44.71373 | 30289 ft | 412 kts | 224° |
| 2026-05-06 21:40 | -20.45824 | -44.73583 | 30601 ft | 414 kts | 224° |
| 2026-05-06 21:40 | -20.47821 | -44.75806 | 30937 ft | 415 kts | 223° |
| 2026-05-06 21:40 | -20.49894 | -44.77877 | 31265 ft | 414 kts | 216° |
| 2026-05-06 21:40 | -20.52208 | -44.79710 | 31591 ft | 414 kts | 214° |
| 2026-05-06 21:41 | -20.54543 | -44.81503 | 32006 ft | 412 kts | 213° |
| 2026-05-06 21:41 | -20.56861 | -44.83283 | 32537 ft | 408 kts | 213° |
| 2026-05-06 21:41 | -20.59146 | -44.85048 | 33026 ft | 404 kts | 213° |
| 2026-05-06 21:41 | -20.61418 | -44.86813 | 33485 ft | 402 kts | 213° |
| 2026-05-06 21:42 | -20.63671 | -44.88572 | 33911 ft | 399 kts | 213° |
| 2026-05-06 21:42 | -20.65914 | -44.90326 | 34303 ft | 398 kts | 213° |
| 2026-05-06 21:42 | -20.68111 | -44.92046 | 34636 ft | 396 kts | 213° |
| 2026-05-06 21:42 | -20.70332 | -44.93785 | 34979 ft | 394 kts | 213° |
| 2026-05-06 21:43 | -20.72542 | -44.95516 | 35270 ft | 393 kts | 213° |
| 2026-05-06 21:43 | -20.74746 | -44.97243 | 35551 ft | 392 kts | 213° |
| 2026-05-06 21:43 | -20.76936 | -44.98963 | 35866 ft | 390 kts | 213° |
| 2026-05-06 21:43 | -20.79125 | -45.00684 | 36163 ft | 389 kts | 214° |
| 2026-05-06 21:44 | -20.81299 | -45.02394 | 36462 ft | 388 kts | 214° |
| 2026-05-06 21:44 | -20.83468 | -45.04102 | 36779 ft | 385 kts | 214° |
| 2026-05-06 21:44 | -20.85626 | -45.05801 | 37093 ft | 383 kts | 214° |
| 2026-05-06 21:44 | -20.87773 | -45.07491 | 37312 ft | 383 kts | 214° |
| 2026-05-06 21:45 | -20.89893 | -45.09160 | 37503 ft | 383 kts | 214° |
| 2026-05-06 21:45 | -20.92039 | -45.10850 | 37724 ft | 382 kts | 214° |
| 2026-05-06 21:45 | -20.94178 | -45.12532 | 37975 ft | 381 kts | 214° |
| 2026-05-06 21:45 | -20.96310 | -45.14211 | 38234 ft | 379 kts | 214° |
| 2026-05-06 21:46 | -20.98434 | -45.15884 | 38453 ft | 378 kts | 214° |
| 2026-05-06 21:46 | -21.00557 | -45.17557 | 38620 ft | 378 kts | 214° |
| 2026-05-06 21:46 | -21.02675 | -45.19227 | 38790 ft | 378 kts | 214° |
| 2026-05-06 21:46 | -21.04794 | -45.20898 | 39001 ft | 376 kts | 214° |
| 2026-05-06 21:47 | -21.06874 | -45.22539 | 39175 ft | 375 kts | 214° |
| 2026-05-06 21:47 | -21.08983 | -45.24203 | 39238 ft | 377 kts | 214° |
| 2026-05-06 21:47 | -21.13248 | -45.27571 | 39324 ft | 382 kts | 214° |
| 2026-05-06 21:48 | -21.17509 | -45.30938 | 39568 ft | 381 kts | 214° |
| 2026-05-06 21:48 | -21.19647 | -45.32629 | 39736 ft | 380 kts | 214° |
| 2026-05-06 21:48 | -21.21778 | -45.34316 | 39844 ft | 380 kts | 214° |
| 2026-05-06 21:49 | -21.23913 | -45.36005 | 39961 ft | 381 kts | 214° |
| 2026-05-06 21:49 | -21.26042 | -45.37691 | 40089 ft | 380 kts | 214° |
| 2026-05-06 21:49 | -21.30288 | -45.41054 | 40142 ft | 382 kts | 215° |
| 2026-05-06 21:50 | -21.34554 | -45.44436 | 40142 ft | 380 kts | 215° |
| 2026-05-06 21:50 | -21.38789 | -45.47796 | 40152 ft | 377 kts | 215° |
| 2026-05-06 21:51 | -21.42999 | -45.51139 | 40160 ft | 375 kts | 215° |
| 2026-05-06 21:51 | -21.47172 | -45.54454 | 40152 ft | 375 kts | 215° |
| 2026-05-06 21:52 | -21.51369 | -45.57783 | 40155 ft | 375 kts | 215° |
| 2026-05-06 21:52 | -21.55594 | -45.61097 | 40160 ft | 376 kts | 215° |
| 2026-05-06 21:53 | -21.59834 | -45.64420 | 40165 ft | 377 kts | 215° |
| 2026-05-06 21:53 | -21.64085 | -45.67758 | 40160 ft | 379 kts | 215° |
| 2026-05-06 21:54 | -21.68332 | -45.71098 | 40155 ft | 381 kts | 215° |
| 2026-05-06 21:54 | -21.72620 | -45.74473 | 40156 ft | 382 kts | 215° |
| 2026-05-06 21:55 | -21.76916 | -45.77858 | 40154 ft | 383 kts | 215° |
| 2026-05-06 21:55 | -21.81192 | -45.81229 | 40160 ft | 383 kts | 215° |
| 2026-05-06 21:56 | -21.85509 | -45.84635 | 40158 ft | 383 kts | 215° |
| 2026-05-06 21:56 | -21.89808 | -45.88030 | 40160 ft | 382 kts | 215° |
| 2026-05-06 21:57 | -21.94066 | -45.91395 | 40174 ft | 381 kts | 215° |
| 2026-05-06 21:57 | -21.98340 | -45.94775 | 40169 ft | 380 kts | 215° |
| 2026-05-06 21:58 | -22.02602 | -45.98148 | 40164 ft | 379 kts | 215° |
| 2026-05-06 21:58 | -22.06852 | -46.01515 | 40165 ft | 378 kts | 215° |
| 2026-05-06 21:59 | -22.11078 | -46.04865 | 40173 ft | 376 kts | 215° |
| 2026-05-06 21:59 | -22.15267 | -46.08187 | 40168 ft | 376 kts | 215° |
| 2026-05-06 22:00 | -22.19473 | -46.11526 | 40179 ft | 375 kts | 215° |
| 2026-05-06 22:00 | -22.23674 | -46.14865 | 40196 ft | 374 kts | 215° |
| 2026-05-06 22:01 | -22.27876 | -46.18206 | 40178 ft | 375 kts | 215° |
| 2026-05-06 22:01 | -22.32124 | -46.21414 | 40170 ft | 374 kts | 210° |
| 2026-05-06 22:02 | -22.36849 | -46.23756 | 40166 ft | 373 kts | 205° |
| 2026-05-06 22:02 | -22.41620 | -46.25979 | 40193 ft | 374 kts | 205° |
| 2026-05-06 22:03 | -22.46405 | -46.28223 | 40190 ft | 376 kts | 205° |
| 2026-05-06 22:03 | -22.51191 | -46.30480 | 40178 ft | 378 kts | 205° |
| 2026-05-06 22:04 | -22.56023 | -46.32764 | 40186 ft | 379 kts | 205° |
| 2026-05-06 22:04 | -22.60864 | -46.35055 | 40183 ft | 380 kts | 205° |
| 2026-05-06 22:05 | -22.65715 | -46.37353 | 40168 ft | 380 kts | 205° |
| 2026-05-06 22:05 | -22.70543 | -46.39642 | 40176 ft | 380 kts | 205° |
| 2026-05-06 22:06 | -22.75404 | -46.41948 | 40169 ft | 379 kts | 205° |
| 2026-05-06 22:06 | -22.80199 | -46.44225 | 40187 ft | 377 kts | 205° |
| 2026-05-06 22:07 | -22.85006 | -46.46508 | 40177 ft | 377 kts | 205° |
| 2026-05-06 22:07 | -22.89818 | -46.48797 | 40167 ft | 376 kts | 205° |
| 2026-05-06 22:08 | -22.94612 | -46.51079 | 40162 ft | 376 kts | 205° |
| 2026-05-06 22:08 | -22.99362 | -46.53342 | 40160 ft | 375 kts | 205° |
| 2026-05-06 22:09 | -23.04134 | -46.55616 | 40167 ft | 374 kts | 205° |
| 2026-05-06 22:09 | -23.08894 | -46.57886 | 40171 ft | 373 kts | 205° |
| 2026-05-06 22:10 | -23.13661 | -46.60163 | 40158 ft | 374 kts | 205° |
| 2026-05-06 22:10 | -23.18424 | -46.62439 | 40158 ft | 374 kts | 205° |
| 2026-05-06 22:11 | -23.23193 | -46.64719 | 40177 ft | 374 kts | 205° |
| 2026-05-06 22:11 | -23.27925 | -46.66984 | 40177 ft | 374 kts | 205° |
| 2026-05-06 22:12 | -23.32705 | -46.69274 | 40178 ft | 375 kts | 205° |
| 2026-05-06 22:12 | -23.37481 | -46.71567 | 40191 ft | 375 kts | 205° |
| 2026-05-06 22:13 | -23.42265 | -46.73866 | 40181 ft | 376 kts | 205° |
| 2026-05-06 22:13 | -23.47051 | -46.76168 | 40182 ft | 376 kts | 205° |
| 2026-05-06 22:14 | -23.51852 | -46.78478 | 40181 ft | 376 kts | 205° |
| 2026-05-06 22:14 | -23.56616 | -46.80770 | 40220 ft | 376 kts | 205° |
| 2026-05-06 22:15 | -23.61409 | -46.83069 | 40219 ft | 376 kts | 205° |
| 2026-05-06 22:15 | -23.66198 | -46.85368 | 40218 ft | 375 kts | 205° |
| 2026-05-06 22:16 | -23.70978 | -46.87665 | 40174 ft | 375 kts | 205° |
| 2026-05-06 22:16 | -23.75752 | -46.89963 | 40171 ft | 375 kts | 205° |
| 2026-05-06 22:17 | -23.80489 | -46.92251 | 40177 ft | 374 kts | 206° |
| 2026-05-06 22:17 | -23.85248 | -46.94552 | 40173 ft | 374 kts | 205° |
| 2026-05-06 22:18 | -23.90003 | -46.96853 | 40171 ft | 373 kts | 205° |
| 2026-05-06 22:18 | -23.94760 | -46.99157 | 40169 ft | 373 kts | 206° |
| 2026-05-06 22:19 | -23.99483 | -47.01446 | 40164 ft | 373 kts | 206° |
| 2026-05-06 22:19 | -24.04238 | -47.03752 | 40165 ft | 374 kts | 206° |
| 2026-05-06 22:20 | -24.08992 | -47.06060 | 40157 ft | 374 kts | 206° |
| 2026-05-06 22:20 | -24.13763 | -47.08379 | 40157 ft | 375 kts | 206° |
| 2026-05-06 22:21 | -24.18543 | -47.10704 | 40164 ft | 376 kts | 206° |
| 2026-05-06 22:21 | -24.23334 | -47.13034 | 40149 ft | 377 kts | 206° |
| 2026-05-06 22:22 | -24.28001 | -47.15623 | 40146 ft | 375 kts | 212° |
| 2026-05-06 22:22 | -24.32379 | -47.18670 | 40134 ft | 375 kts | 213° |
| 2026-05-06 22:23 | -24.36787 | -47.21761 | 40114 ft | 377 kts | 213° |
| 2026-05-06 22:23 | -24.41219 | -47.24855 | 40132 ft | 378 kts | 213° |
| 2026-05-06 22:24 | -24.45662 | -47.27951 | 40118 ft | 378 kts | 213° |
| 2026-05-06 22:24 | -24.49350 | -47.30519 | 40126 ft | 376 kts | 213° |
| 2026-05-06 22:25 | -24.54489 | -47.34100 | 40125 ft | 376 kts | 213° |
| 2026-05-06 22:25 | -24.58905 | -47.37180 | 40127 ft | 374 kts | 213° |
| 2026-05-06 22:26 | -24.62562 | -47.39732 | 40110 ft | 374 kts | 213° |
| 2026-05-06 22:26 | -24.66950 | -47.42797 | 40123 ft | 373 kts | 213° |
| 2026-05-06 22:27 | -24.71335 | -47.45862 | 40119 ft | 373 kts | 213° |
| 2026-05-06 22:27 | -24.75721 | -47.48932 | 40121 ft | 373 kts | 213° |
| 2026-05-06 22:28 | -24.80077 | -47.51982 | 40124 ft | 374 kts | 213° |
| 2026-05-06 22:28 | -24.84473 | -47.55063 | 40126 ft | 375 kts | 213° |
| 2026-05-06 22:29 | -24.88873 | -47.58149 | 40121 ft | 375 kts | 213° |
| 2026-05-06 22:29 | -24.93287 | -47.61248 | 40119 ft | 376 kts | 213° |
| 2026-05-06 22:30 | -24.97702 | -47.64351 | 40125 ft | 377 kts | 213° |
| 2026-05-06 22:30 | -25.02130 | -47.67465 | 40127 ft | 377 kts | 213° |
| 2026-05-06 22:31 | -25.06533 | -47.70565 | 40124 ft | 378 kts | 213° |
| 2026-05-06 22:31 | -25.10972 | -47.73692 | 40123 ft | 379 kts | 213° |
| 2026-05-06 22:32 | -25.15416 | -47.76827 | 40116 ft | 379 kts | 213° |
| 2026-05-06 22:32 | -25.19859 | -47.79963 | 40127 ft | 379 kts | 213° |
| 2026-05-06 22:33 | -25.24298 | -47.83099 | 40125 ft | 378 kts | 214° |
| 2026-05-06 22:33 | -25.28734 | -47.86235 | 40125 ft | 378 kts | 214° |
| 2026-05-06 22:34 | -25.33131 | -47.89346 | 40124 ft | 378 kts | 214° |
| 2026-05-06 22:34 | -25.37561 | -47.92485 | 40125 ft | 377 kts | 214° |
| 2026-05-06 22:35 | -25.41976 | -47.95617 | 40120 ft | 377 kts | 214° |
| 2026-05-06 22:35 | -25.46388 | -47.98749 | 40113 ft | 377 kts | 214° |
| 2026-05-06 22:36 | -25.50795 | -48.01882 | 40122 ft | 376 kts | 214° |
| 2026-05-06 22:36 | -25.55210 | -48.05023 | 40122 ft | 376 kts | 214° |
| 2026-05-06 22:37 | -25.59591 | -48.08142 | 40113 ft | 376 kts | 214° |
| 2026-05-06 22:37 | -25.63997 | -48.11280 | 40120 ft | 377 kts | 214° |
| 2026-05-06 22:38 | -25.68419 | -48.14424 | 40120 ft | 377 kts | 214° |
| 2026-05-06 22:38 | -25.72807 | -48.17545 | 40112 ft | 377 kts | 214° |
| 2026-05-06 22:39 | -25.77229 | -48.20694 | 40115 ft | 377 kts | 214° |
| 2026-05-06 22:39 | -25.81653 | -48.23849 | 40107 ft | 377 kts | 214° |
| 2026-05-06 22:40 | -25.86071 | -48.27003 | 40119 ft | 378 kts | 214° |
| 2026-05-06 22:40 | -25.90494 | -48.30163 | 40122 ft | 378 kts | 214° |
| 2026-05-06 22:41 | -25.97098 | -48.34886 | 40112 ft | 378 kts | 214° |
| 2026-05-06 22:42 | -26.01523 | -48.38054 | 40114 ft | 378 kts | 215° |
| 2026-05-06 22:42 | -26.05950 | -48.41227 | 40123 ft | 378 kts | 215° |
| 2026-05-06 22:43 | -26.10373 | -48.44400 | 40114 ft | 378 kts | 215° |
| 2026-05-06 22:43 | -26.14799 | -48.47578 | 40115 ft | 378 kts | 215° |
| 2026-05-06 22:44 | -26.19223 | -48.50757 | 40110 ft | 378 kts | 215° |
| 2026-05-06 22:44 | -26.23647 | -48.53940 | 40110 ft | 378 kts | 215° |
| 2026-05-06 22:45 | -26.28038 | -48.57102 | 40113 ft | 378 kts | 215° |
| 2026-05-06 22:45 | -26.32462 | -48.60291 | 40118 ft | 378 kts | 215° |
| 2026-05-06 22:46 | -26.36878 | -48.63479 | 40114 ft | 378 kts | 216° |
| 2026-05-06 22:46 | -26.41297 | -48.66673 | 40106 ft | 379 kts | 216° |
| 2026-05-06 22:47 | -26.45719 | -48.69871 | 40117 ft | 378 kts | 216° |
| 2026-05-06 22:47 | -26.50127 | -48.73092 | 40119 ft | 379 kts | 216° |
| 2026-05-06 22:48 | -26.54535 | -48.76346 | 40107 ft | 379 kts | 216° |
| 2026-05-06 22:48 | -26.58909 | -48.79576 | 40113 ft | 379 kts | 216° |
| 2026-05-06 22:49 | -26.63309 | -48.82824 | 40121 ft | 379 kts | 216° |
| 2026-05-06 22:49 | -26.67716 | -48.86076 | 40127 ft | 379 kts | 216° |
| 2026-05-06 22:50 | -26.72138 | -48.89304 | 40114 ft | 379 kts | 216° |
| 2026-05-06 22:50 | -26.76565 | -48.92531 | 40122 ft | 379 kts | 216° |
| 2026-05-06 22:51 | -26.80977 | -48.95753 | 40110 ft | 378 kts | 216° |
| 2026-05-06 22:51 | -26.85358 | -48.98958 | 40117 ft | 378 kts | 216° |
| 2026-05-06 22:52 | -26.89762 | -49.02184 | 40110 ft | 378 kts | 216° |
| 2026-05-06 22:52 | -26.94156 | -49.05406 | 40119 ft | 377 kts | 216° |
| 2026-05-06 22:53 | -26.98540 | -49.08624 | 40116 ft | 377 kts | 216° |
| 2026-05-06 22:53 | -27.02924 | -49.11844 | 40125 ft | 376 kts | 217° |
| 2026-05-06 22:54 | -27.07280 | -49.15047 | 40124 ft | 376 kts | 217° |
| 2026-05-06 22:54 | -27.11665 | -49.18274 | 40125 ft | 377 kts | 217° |
| 2026-05-06 22:55 | -27.16048 | -49.21503 | 40128 ft | 377 kts | 217° |
| 2026-05-06 22:55 | -27.20433 | -49.24737 | 40128 ft | 377 kts | 217° |
| 2026-05-06 22:56 | -27.24792 | -49.27955 | 40127 ft | 377 kts | 217° |
| 2026-05-06 22:56 | -27.29183 | -49.31199 | 40138 ft | 378 kts | 217° |
| 2026-05-06 22:57 | -27.33581 | -49.34452 | 40132 ft | 378 kts | 217° |
| 2026-05-06 22:57 | -27.37955 | -49.37689 | 40126 ft | 379 kts | 217° |
| 2026-05-06 22:58 | -27.42353 | -49.40948 | 40142 ft | 378 kts | 217° |
| 2026-05-06 22:58 | -27.46747 | -49.44208 | 40146 ft | 378 kts | 217° |
| 2026-05-06 22:59 | -27.51135 | -49.47466 | 40149 ft | 378 kts | 217° |
| 2026-05-06 22:59 | -27.55525 | -49.50729 | 40151 ft | 378 kts | 217° |
| 2026-05-06 23:00 | -27.59899 | -49.53970 | 40154 ft | 379 kts | 217° |
| 2026-05-06 23:00 | -27.64300 | -49.57231 | 40158 ft | 377 kts | 217° |
| 2026-05-06 23:01 | -27.68694 | -49.60493 | 40153 ft | 377 kts | 217° |
| 2026-05-06 23:01 | -27.73073 | -49.63747 | 40151 ft | 377 kts | 217° |
| 2026-05-06 23:02 | -27.77478 | -49.66962 | 40161 ft | 377 kts | 216° |
| 2026-05-06 23:02 | -27.81884 | -49.70087 | 40158 ft | 376 kts | 216° |
| 2026-05-06 23:03 | -27.86321 | -49.73236 | 40167 ft | 376 kts | 216° |
| 2026-05-06 23:03 | -27.90752 | -49.76393 | 40191 ft | 376 kts | 217° |
| 2026-05-06 23:04 | -27.95178 | -49.79555 | 40174 ft | 376 kts | 217° |
| 2026-05-06 23:04 | -27.99592 | -49.82713 | 40173 ft | 374 kts | 217° |
| 2026-05-06 23:05 | -28.03967 | -49.85846 | 40184 ft | 374 kts | 217° |
| 2026-05-06 23:05 | -28.08369 | -49.89004 | 40177 ft | 374 kts | 217° |
| 2026-05-06 23:06 | -28.12772 | -49.92163 | 40175 ft | 374 kts | 217° |
| 2026-05-06 23:06 | -28.17177 | -49.95328 | 40182 ft | 374 kts | 217° |
| 2026-05-06 23:07 | -28.21557 | -49.98477 | 40179 ft | 375 kts | 217° |
| 2026-05-06 23:07 | -28.25968 | -50.01653 | 40174 ft | 375 kts | 218° |
| 2026-05-06 23:08 | -28.30384 | -50.04834 | 40175 ft | 375 kts | 218° |
| 2026-05-06 23:08 | -28.34797 | -50.08018 | 40157 ft | 375 kts | 218° |
| 2026-05-06 23:09 | -28.39208 | -50.11202 | 40103 ft | 377 kts | 218° |
| 2026-05-06 23:09 | -28.41420 | -50.12802 | 39662 ft | 382 kts | 217° |
| 2026-05-06 23:09 | -28.43672 | -50.14431 | 39064 ft | 383 kts | 217° |
| 2026-05-06 23:09 | -28.45915 | -50.16052 | 38458 ft | 382 kts | 217° |
| 2026-05-06 23:10 | -28.48153 | -50.17670 | 37919 ft | 378 kts | 217° |
| 2026-05-06 23:10 | -28.50364 | -50.19268 | 37436 ft | 374 kts | 218° |
| 2026-05-06 23:10 | -28.52549 | -50.20850 | 36966 ft | 370 kts | 218° |
| 2026-05-06 23:10 | -28.54713 | -50.22417 | 36537 ft | 366 kts | 218° |
| 2026-05-06 23:11 | -28.56831 | -50.23952 | 36117 ft | 363 kts | 218° |
| 2026-05-06 23:11 | -28.58947 | -50.25487 | 35694 ft | 359 kts | 218° |
| 2026-05-06 23:11 | -28.61045 | -50.27011 | 35262 ft | 356 kts | 218° |
| 2026-05-06 23:11 | -28.63130 | -50.28527 | 34828 ft | 354 kts | 218° |
| 2026-05-06 23:12 | -28.65203 | -50.30034 | 34405 ft | 353 kts | 218° |
| 2026-05-06 23:12 | -28.67265 | -50.31534 | 33937 ft | 352 kts | 218° |
| 2026-05-06 23:12 | -28.69324 | -50.33031 | 33486 ft | 349 kts | 218° |
| 2026-05-06 23:12 | -28.71368 | -50.34517 | 33051 ft | 347 kts | 218° |
| 2026-05-06 23:13 | -28.72710 | -50.35500 | 32766 ft | 345 kts | 219° |
| 2026-05-06 23:13 | -28.74689 | -50.37086 | 31967 ft | 352 kts | 221° |
| 2026-05-06 23:13 | -28.76648 | -50.38760 | 31531 ft | 350 kts | 222° |
| 2026-05-06 23:13 | -28.79221 | -50.40991 | 30964 ft | 348 kts | 222° |
| 2026-05-06 23:14 | -28.81149 | -50.42660 | 30552 ft | 347 kts | 222° |
| 2026-05-06 23:14 | -28.83073 | -50.44317 | 30141 ft | 345 kts | 222° |
| 2026-05-06 23:14 | -28.84341 | -50.45407 | 29840 ft | 343 kts | 222° |
| 2026-05-06 23:14 | -28.86257 | -50.47065 | 29424 ft | 340 kts | 223° |
| 2026-05-06 23:15 | -28.88086 | -50.48695 | 29167 ft | 335 kts | 223° |
| 2026-05-06 23:15 | -28.89930 | -50.50360 | 28917 ft | 341 kts | 223° |
| 2026-05-06 23:15 | -28.91804 | -50.52060 | 28669 ft | 347 kts | 223° |
| 2026-05-06 23:15 | -28.93704 | -50.53782 | 28326 ft | 348 kts | 223° |
| 2026-05-06 23:16 | -28.95593 | -50.55489 | 27929 ft | 344 kts | 223° |
| 2026-05-06 23:16 | -28.97466 | -50.57178 | 27493 ft | 341 kts | 223° |
| 2026-05-06 23:16 | -28.99303 | -50.58835 | 27064 ft | 339 kts | 223° |
| 2026-05-06 23:16 | -29.01151 | -50.60502 | 26628 ft | 337 kts | 223° |
| 2026-05-06 23:17 | -29.02983 | -50.62156 | 26203 ft | 335 kts | 223° |
| 2026-05-06 23:17 | -29.04809 | -50.63805 | 25759 ft | 334 kts | 223° |
| 2026-05-06 23:17 | -29.06636 | -50.65456 | 25316 ft | 334 kts | 223° |
| 2026-05-06 23:17 | -29.08461 | -50.67105 | 24879 ft | 333 kts | 223° |
| 2026-05-06 23:18 | -29.10276 | -50.68747 | 24444 ft | 333 kts | 223° |
| 2026-05-06 23:18 | -29.12074 | -50.70374 | 23999 ft | 333 kts | 223° |
| 2026-05-06 23:18 | -29.13888 | -50.72016 | 23548 ft | 333 kts | 223° |
| 2026-05-06 23:18 | -29.15706 | -50.73663 | 23037 ft | 333 kts | 223° |
| 2026-05-06 23:19 | -29.17519 | -50.75304 | 22589 ft | 331 kts | 223° |
| 2026-05-06 23:19 | -29.19319 | -50.76934 | 22142 ft | 329 kts | 223° |
| 2026-05-06 23:19 | -29.21110 | -50.78557 | 21696 ft | 327 kts | 223° |
| 2026-05-06 23:19 | -29.22893 | -50.80175 | 21258 ft | 326 kts | 223° |
| 2026-05-06 23:20 | -29.24663 | -50.81780 | 20824 ft | 324 kts | 223° |
| 2026-05-06 23:20 | -29.26432 | -50.83387 | 20367 ft | 324 kts | 223° |
| 2026-05-06 23:20 | -29.28201 | -50.84994 | 19935 ft | 323 kts | 223° |
| 2026-05-06 23:20 | -29.29964 | -50.86596 | 19488 ft | 323 kts | 223° |
| 2026-05-06 23:21 | -29.31703 | -50.88177 | 19046 ft | 323 kts | 223° |
| 2026-05-06 23:21 | -29.33467 | -50.89783 | 18599 ft | 323 kts | 223° |
| 2026-05-06 23:21 | -29.35215 | -50.91373 | 18130 ft | 324 kts | 223° |
| 2026-05-06 23:21 | -29.36997 | -50.92996 | 17639 ft | 324 kts | 223° |
| 2026-05-06 23:22 | -29.38755 | -50.94597 | 17196 ft | 322 kts | 223° |
| 2026-05-06 23:22 | -29.40509 | -50.96196 | 16729 ft | 321 kts | 223° |
| 2026-05-06 23:22 | -29.42241 | -50.97774 | 16262 ft | 321 kts | 223° |
| 2026-05-06 23:22 | -29.43992 | -50.99371 | 15802 ft | 321 kts | 222° |
| 2026-05-06 23:23 | -29.45737 | -51.00964 | 15350 ft | 320 kts | 222° |
| 2026-05-06 23:23 | -29.47484 | -51.02557 | 14897 ft | 320 kts | 222° |
| 2026-05-06 23:23 | -29.49229 | -51.04152 | 14423 ft | 320 kts | 222° |
| 2026-05-06 23:23 | -29.50973 | -51.05746 | 13954 ft | 320 kts | 221° |
| 2026-05-06 23:24 | -29.52711 | -51.07334 | 13443 ft | 320 kts | 222° |
| 2026-05-06 23:24 | -29.54437 | -51.08912 | 12945 ft | 319 kts | 222° |
| 2026-05-06 23:24 | -29.56152 | -51.10481 | 12478 ft | 318 kts | 222° |
| 2026-05-06 23:24 | -29.57885 | -51.12066 | 12002 ft | 318 kts | 222° |
| 2026-05-06 23:25 | -29.59612 | -51.13648 | 11537 ft | 317 kts | 222° |
| 2026-05-06 23:25 | -29.61341 | -51.15232 | 11064 ft | 317 kts | 222° |
| 2026-05-06 23:25 | -29.63063 | -51.16811 | 10598 ft | 317 kts | 222° |
| 2026-05-06 23:25 | -29.64791 | -51.18396 | 9999 ft | 320 kts | 222° |
| 2026-05-06 23:26 | -29.66525 | -51.19986 | 9792 ft | 306 kts | 222° |
| 2026-05-06 23:26 | -29.68136 | -51.21458 | 9665 ft | 286 kts | 222° |
| 2026-05-06 23:26 | -29.69667 | -51.22860 | 9343 ft | 278 kts | 223° |
| 2026-05-06 23:26 | -29.71175 | -51.24247 | 8941 ft | 278 kts | 223° |
| 2026-05-06 23:27 | -29.72675 | -51.25629 | 8526 ft | 279 kts | 223° |
| 2026-05-06 23:27 | -29.74194 | -51.27029 | 8120 ft | 280 kts | 223° |
| 2026-05-06 23:27 | -29.75724 | -51.28437 | 7710 ft | 281 kts | 223° |
| 2026-05-06 23:27 | -29.77256 | -51.29848 | 7308 ft | 282 kts | 223° |
| 2026-05-06 23:28 | -29.78782 | -51.31252 | 6896 ft | 278 kts | 223° |
| 2026-05-06 23:28 | -29.80279 | -51.32630 | 6490 ft | 275 kts | 223° |
| 2026-05-06 23:28 | -29.81753 | -51.33988 | 6106 ft | 276 kts | 223° |
| 2026-05-06 23:28 | -29.83254 | -51.35373 | 5687 ft | 276 kts | 223° |
| 2026-05-06 23:29 | -29.84747 | -51.36749 | 5267 ft | 272 kts | 223° |
| 2026-05-06 23:29 | -29.86217 | -51.38103 | 4850 ft | 267 kts | 223° |
| 2026-05-06 23:29 | -29.87659 | -51.39431 | 4427 ft | 262 kts | 223° |
| 2026-05-06 23:29 | -29.89191 | -51.40501 | 4058 ft | 258 kts | 198° |
| 2026-05-06 23:30 | -29.90915 | -51.40616 | 3871 ft | 244 kts | 173° |
| 2026-05-06 23:30 | -29.92517 | -51.40109 | 3645 ft | 231 kts | 163° |
| 2026-05-06 23:30 | -29.93967 | -51.39525 | 3417 ft | 217 kts | 162° |
| 2026-05-06 23:30 | -29.95356 | -51.38963 | 3175 ft | 206 kts | 162° |
| 2026-05-06 23:31 | -29.96673 | -51.38438 | 2978 ft | 193 kts | 163° |
| 2026-05-06 23:31 | -29.97897 | -51.37841 | 2804 ft | 192 kts | 142° |
| 2026-05-06 23:31 | -29.98752 | -51.36676 | 2721 ft | 193 kts | 115° |
| 2026-05-06 23:31 | -29.99104 | -51.35189 | 2505 ft | 191 kts | 91° |
| 2026-05-06 23:32 | -29.99160 | -51.33694 | 2324 ft | 183 kts | 87° |
| 2026-05-06 23:32 | -29.99181 | -51.32258 | 2134 ft | 175 kts | 87° |
| 2026-05-06 23:32 | -29.99203 | -51.30879 | 2043 ft | 171 kts | 87° |
| 2026-05-06 23:32 | -29.99227 | -51.29492 | 1828 ft | 173 kts | 87° |
| 2026-05-06 23:33 | -29.99252 | -51.28112 | 1610 ft | 170 kts | 88° |
| 2026-05-06 23:33 | -29.99278 | -51.26783 | 1425 ft | 158 kts | 88° |
| 2026-05-06 23:33 | -29.99302 | -51.25557 | 1185 ft | 148 kts | 88° |
| 2026-05-06 23:33 | -29.99322 | -51.24393 | 1024 ft | 145 kts | 88° |
| 2026-05-06 23:34 | -29.99343 | -51.23240 | 862 ft | 145 kts | 89° |
| 2026-05-06 23:34 | -29.99362 | -51.22049 | 718 ft | 149 kts | 89° |
| 2026-05-06 23:34 | -29.99378 | -51.20883 | 476 ft | 140 kts | 91° |
| 2026-05-06 23:34 | -29.99409 | -51.19787 | 322 ft | 138 kts | 92° |
| 2026-05-06 23:35 | -29.99431 | -51.18677 | 139 ft | 140 kts | 91° |
| 2026-05-06 23:35 | -29.99453 | -51.17580 | 18 ft | 126 kts | 92° |
| 2026-05-06 23:35 | -29.99468 | -51.16855 | 13 ft | 40 kts | 91° |
| 2026-05-06 23:35 | -29.99449 | -51.16756 | 15 ft | 3 kts | 34° |
| 2026-05-06 23:36 | -29.99425 | -51.16746 | 14 ft | 5 kts | 10° |
| 2026-05-06 23:36 | -29.99382 | -51.16743 | 14 ft | 8 kts | 1° |
| 2026-05-06 23:36 | -29.99315 | -51.16740 | 14 ft | 10 kts | 2° |
| 2026-05-06 23:36 | -29.99278 | -51.16802 | 14 ft | 12 kts | 272° |
| 2026-05-06 23:37 | -29.99276 | -51.16914 | 15 ft | 16 kts | 271° |
| 2026-05-06 23:37 | -29.99273 | -51.17053 | 14 ft | 19 kts | 272° |
| 2026-05-06 23:37 | -29.99270 | -51.17214 | 14 ft | 20 kts | 272° |
| 2026-05-06 23:37 | -29.99268 | -51.17347 | 15 ft | 13 kts | 270° |
| 2026-05-06 23:38 | -29.99247 | -51.17392 | 15 ft | 7 kts | 339° |
| 2026-05-06 23:38 | -29.99201 | -51.17393 | 15 ft | 7 kts | 2° |
| 2026-05-06 23:38 | -29.99173 | -51.17427 | 15 ft | 6 kts | 279° |
| 2026-05-06 23:38 | -29.99172 | -51.17478 | 15 ft | 6 kts | 271° |
| 2026-05-06 23:39 | -29.99171 | -51.17527 | 15 ft | 2 kts | 272° |
| 2026-05-06 23:39 | -29.99160 | -51.17535 | 16 ft | 2 kts | 340° |
| 2026-05-06 23:39 | -29.99148 | -51.17537 | 16 ft | 2 kts | 352° |
| 2026-05-06 23:39 | -29.99134 | -51.17537 | 15 ft | 2 kts | 1° |
| 2026-05-06 23:40 | -29.99124 | -51.17537 | 15 ft | 0 kts | 0° |